• Join FlightAware (Why Join?)
  • Login
  • US Flag 
11:03AM EDT


 

Airport Tracker/Info


-or-


 

Live Flight TrackerFlight Track Log ✈ N804 ✈ 04-May-2013 ✈ KBTP - KTTN

Flight Track Log - Related Links

Times and Time Zones

All times are in EDT time to prevent confusion due to time zone crossing. See the N804 flight status page for this flight to view local times or setup timezone preferences in your user account.

Time Position Orientation Groundspeed Altitude Reporting Facility
EDT Latitude Longitude Course Direction KTS MPH feet Rate Location/Type
09:22AM 40.7661 -79.6811 95° East 190 219 9,400  Level Cleveland Center
09:23AM 40.7614 -79.6128 95° East 190 219 11,100 1,560 Climbing Cleveland Center
09:24AM 40.7544 -79.5469 98° East 190 219 12,600 1,500 Climbing Cleveland Center
09:25AM 40.7478 -79.4758 97° East 190 219 14,100 1,380 Climbing Cleveland Center
09:26AM 40.7428 -79.4075 95° East 190 219 15,400 1,080 Climbing Cleveland Center
09:27AM 40.7358 -79.3392 98° East 190 219 16,300 900 Climbing Cleveland Center
09:28AM 40.7286 -79.2625 97° East 196 226 17,200 600 Climbing Cleveland Center
09:29AM 40.7217 -79.1858 97° East 206 237 17,500 120 Climbing Cleveland Center
09:30AM 40.7142 -79.1011 97° East 218 251 17,500  Level Cleveland Center
09:31AM 40.7089 -79.0108 94° East 230 265 17,500  Level Cleveland Center
09:32AM 40.6992 -78.9208 98° East 242 278 17,500  Level Cleveland Center
09:33AM 40.6917 -78.8306 96° East 242 278 17,500  Level Cleveland Center
09:34AM 40.6839 -78.7403 96° East 248 285 17,500  Level Cleveland Center
09:35AM 40.6761 -78.6503 96° East 248 285 17,500  Level Cleveland Center
09:38AM 40.6600 -78.4511 96° East 254 292 17,600  Climbing New York Center
09:39AM 40.6514 -78.3597 97° East 254 292 17,600  Level New York Center
09:40AM 40.6425 -78.2711 98° East 254 292 17,600  Level New York Center
09:41AM 40.6339 -78.1772 97° East 254 292 17,600  Level New York Center
09:42AM 40.6247 -78.0861 98° East 254 292 17,600  Level New York Center
09:43AM 40.6178 -77.9978 96° East 254 292 17,600  Level New York Center
09:44AM 40.6086 -77.9064 97° East 254 292 17,600  Level New York Center
09:45AM 40.5997 -77.8125 97° East 259 298 17,600  Level New York Center
09:46AM 40.5925 -77.7217 96° East 254 292 17,600  Level New York Center
09:47AM 40.5792 -77.6300 101° East 254 292 17,600  Level New York Center
09:48AM 40.5683 -77.5278 98° East 260 299 17,600  Level New York Center
09:49AM 40.5625 -77.4481 95° East 255 293 17,600  Level New York Center
09:50AM 40.5539 -77.3433 96° East 255 293 17,600  Level New York Center
09:51AM 40.5439 -77.2606 99° East 255 293 17,600  Level New York Center
09:52AM 40.5431 -77.1592 91° East 255 293 17,600  Level New York Center
09:53AM 40.5475 -77.0778 86° East 255 293 17,600  Level New York Center
09:54AM 40.5489 -76.9714 89° East 255 293 17,600  Level New York Center
09:55AM 40.5531 -76.8897 86° East 255 293 17,600 -60 Level New York Center
09:56AM 40.5578 -76.7972 86° East 255 293 17,500  Descending New York Center
09:57AM 40.5608 -76.6964 88° East 255 293 17,600  Climbing New York Center
09:58AM 40.5525 -76.6136 98° East 255 293 17,600  Level New York Center
09:59AM 40.5367 -76.5114 101° East 255 293 17,600 -60 Level New York Center
10:00AM 40.5217 -76.4308 104° East 261 300 17,500 -60 Descending New York Center
10:01AM 40.5036 -76.3283 103° East 261 300 17,500  Level New York Center
10:02AM 40.4892 -76.2372 102° East 256 295 17,500  Level New York Center
10:03AM 40.4747 -76.1431 101° East 261 300 17,500  Level New York Center
10:04AM 40.4639 -76.0606 100° East 261 300 17,500  Level New York Center
10:05AM 40.4514 -75.9642 100° East 256 295 17,500 -480 Level New York Center
10:06AM 40.4350 -75.8619 102° East 258 297 16,600 -960 Descending New York Center
10:07AM 40.4206 -75.7628 101° East 273 314 15,600 -1,200 Descending New York Center
10:08AM 40.4075 -75.6744 101° East 278 320 14,300 -1,260 Descending New York Center
10:09AM 40.3972 -75.5756 98° East 278 320 13,100 -1,440 Descending New York Center
10:10AM 40.3828 -75.4683 100° East 278 320 11,500 -1,560 Descending New York Center
10:11AM 40.3636 -75.3689 104° East 278 320 10,000 -1,380 Descending New York Center
10:12AM 40.3506 -75.2756 100° East 273 314 8,700 -1,380 Descending New York Center
10:13AM 40.3392 -75.1903 100° East 262 302 7,300 -1,440 Descending New York Center
10:14AM 40.3197 -75.0967 105° East 250 288 5,900 -900 Descending New York Center
10:15AM 40.3036 -75.0219 106° East 244 281 5,600 -300 Descending New York Center
10:23AM 40.2728 -74.8684 114° Southeast  Level FlightAware Approximate
10:30AM 40.2767 -74.8135 311° West  Level Estimated
10:31AM 40.2767 -74.8135 311° West  Level Estimated
10:32AM 40.2767 -74.8135 311° West  Level Estimated
10:33AM 40.2767 -74.8135 311° West  Level Estimated
10:34AM 40.2767 -74.8135 311° West  Level Estimated
10:35AM 40.2767 -74.8135 311° West  Level Estimated
10:36AM 40.2767 -74.8135 311° West  Level Estimated